createdAt,value
2018-07-03T00:02:16.244Z,99.90
2018-07-03T00:04:43.869Z,99.90
2018-07-03T00:07:11.473Z,99.90
2018-07-03T00:09:39.144Z,99.90
2018-07-03T00:12:06.745Z,99.90
2018-07-03T00:14:34.376Z,99.90
2018-07-03T00:17:07.515Z,99.90
2018-07-03T00:19:35.140Z,99.90
2018-07-03T00:22:02.744Z,99.90
2018-07-03T00:24:30.364Z,99.90
2018-07-03T00:26:57.964Z,99.90
2018-07-03T00:29:25.588Z,99.90
2018-07-03T00:31:53.191Z,99.90
2018-07-03T00:34:20.819Z,99.90
2018-07-03T00:36:48.419Z,99.90
2018-07-03T00:39:16.060Z,99.90
2018-07-03T00:41:43.712Z,99.90
2018-07-03T00:44:11.332Z,99.90
2018-07-03T00:46:38.940Z,99.90
2018-07-03T00:49:06.588Z,99.90
2018-07-03T00:51:34.192Z,99.90
2018-07-03T00:54:01.807Z,99.90
2018-07-03T00:56:29.409Z,99.90
2018-07-03T00:58:57.031Z,99.90
2018-07-03T01:01:24.628Z,99.90
2018-07-03T01:03:52.252Z,99.90
2018-07-03T01:06:19.848Z,99.90
2018-07-03T01:08:47.463Z,99.90
2018-07-03T01:11:15.060Z,99.90
2018-07-03T01:13:42.688Z,99.90
2018-07-03T01:16:10.320Z,99.90
2018-07-03T01:18:37.936Z,99.90
2018-07-03T01:21:05.528Z,99.90
2018-07-03T01:23:33.177Z,99.90
2018-07-03T01:26:00.789Z,99.90
2018-07-03T01:28:28.427Z,99.90
2018-07-03T01:30:56.024Z,99.90
2018-07-03T01:33:23.647Z,99.90
2018-07-03T01:35:51.312Z,99.90
2018-07-03T01:38:18.920Z,99.90
2018-07-03T01:40:46.538Z,99.90
2018-07-03T01:43:14.136Z,99.90
2018-07-03T01:45:41.761Z,99.90
2018-07-03T01:48:09.360Z,99.90
2018-07-03T01:50:37.081Z,99.90
2018-07-03T01:53:04.688Z,99.90
2018-07-03T01:55:32.311Z,99.90
2018-07-03T01:57:59.907Z,99.90
2018-07-03T02:00:27.581Z,99.90
2018-07-03T02:02:55.188Z,99.90
2018-07-03T02:05:23.186Z,99.90
2018-07-03T02:07:50.888Z,99.90
2018-07-03T02:10:18.489Z,99.90
2018-07-03T02:12:46.113Z,99.90
2018-07-03T02:15:13.738Z,99.90
2018-07-03T02:17:41.400Z,99.90
2018-07-03T02:20:08.996Z,99.90
2018-07-03T02:22:36.611Z,99.90
2018-07-03T02:25:04.220Z,99.90
2018-07-03T02:27:31.840Z,99.90
2018-07-03T02:29:59.452Z,99.90
2018-07-03T02:32:27.092Z,99.90
2018-07-03T02:34:54.696Z,99.90
2018-07-03T02:37:22.316Z,99.90
2018-07-03T02:39:49.916Z,99.90
2018-07-03T02:42:17.537Z,99.90
2018-07-03T02:44:45.142Z,99.90
2018-07-03T02:47:12.764Z,99.90
2018-07-03T02:49:40.364Z,99.90
2018-07-03T02:52:07.976Z,99.90
2018-07-03T02:54:35.589Z,99.90
2018-07-03T02:57:03.208Z,99.90
2018-07-03T02:59:30.836Z,99.90
2018-07-03T03:01:58.457Z,99.90
2018-07-03T03:04:26.077Z,99.90
2018-07-03T03:06:53.706Z,99.90
2018-07-03T03:09:21.307Z,99.90
2018-07-03T03:11:48.933Z,99.90
2018-07-03T03:14:16.588Z,99.90
2018-07-03T03:16:44.196Z,99.90
2018-07-03T03:19:11.833Z,99.90
2018-07-03T03:21:39.436Z,99.90
2018-07-03T03:24:07.074Z,99.90
2018-07-03T03:26:34.693Z,99.90
2018-07-03T03:29:02.323Z,99.90
2018-07-03T03:31:30.008Z,99.90
2018-07-03T03:33:57.604Z,99.90
2018-07-03T03:36:25.219Z,99.90
2018-07-03T03:38:52.840Z,99.90
2018-07-03T03:41:20.459Z,99.90
2018-07-03T03:43:48.055Z,99.90
2018-07-03T03:46:15.684Z,99.90
2018-07-03T03:48:43.284Z,99.90
2018-07-03T03:51:10.917Z,99.90
2018-07-03T03:53:38.547Z,99.90
2018-07-03T03:56:06.230Z,99.90
2018-07-03T03:58:33.800Z,99.90
2018-07-03T04:01:01.434Z,99.90
2018-07-03T04:03:29.063Z,99.90
2018-07-03T04:05:56.679Z,99.90
2018-07-03T04:08:24.283Z,99.90
2018-07-03T04:10:51.910Z,99.90
2018-07-03T04:13:19.513Z,99.90
2018-07-03T04:15:47.128Z,99.90
2018-07-03T04:18:19.048Z,99.90
2018-07-03T04:20:46.704Z,99.90
2018-07-03T04:23:14.304Z,99.90
2018-07-03T04:25:41.920Z,99.90
2018-07-03T04:28:09.523Z,99.90
2018-07-03T04:30:37.148Z,99.90
2018-07-03T04:33:04.928Z,99.90
2018-07-03T04:35:32.552Z,99.90
2018-07-03T04:38:00.147Z,99.90
2018-07-03T04:40:27.757Z,99.90
2018-07-03T04:42:55.371Z,99.90
2018-07-03T04:45:22.976Z,99.90
2018-07-03T04:47:50.596Z,99.90
2018-07-03T04:50:18.206Z,99.90
2018-07-03T04:52:45.835Z,99.90
2018-07-03T04:55:13.436Z,99.90
2018-07-03T04:57:41.056Z,99.90
2018-07-03T05:00:08.657Z,99.90
2018-07-03T05:02:36.323Z,99.90
2018-07-03T05:05:04.293Z,99.90
2018-07-03T05:07:31.933Z,99.90
2018-07-03T05:09:59.645Z,99.90
2018-07-03T05:12:27.268Z,99.90
2018-07-03T05:14:54.888Z,99.90
2018-07-03T05:17:22.527Z,99.90
2018-07-03T05:19:50.216Z,99.90
2018-07-03T05:22:17.839Z,99.90
2018-07-03T05:24:45.513Z,99.90
2018-07-03T05:27:13.129Z,99.90
2018-07-03T05:29:40.727Z,99.90
2018-07-03T05:34:35.700Z,99.90
2018-07-03T05:37:03.327Z,99.90
2018-07-03T05:39:30.929Z,99.90
2018-07-03T05:41:58.604Z,99.90
2018-07-03T05:44:26.217Z,99.90
2018-07-03T05:46:53.867Z,99.90
2018-07-03T05:49:21.489Z,99.90
2018-07-03T05:51:49.113Z,99.90
2018-07-03T05:54:16.719Z,99.90
2018-07-03T05:56:44.341Z,99.90
2018-07-03T05:59:11.945Z,99.90
2018-07-03T06:01:39.568Z,99.90
2018-07-03T06:04:07.192Z,99.90
2018-07-03T06:06:34.812Z,99.90
2018-07-03T06:09:02.437Z,99.90
2018-07-03T06:11:30.077Z,99.90
2018-07-03T06:13:57.675Z,99.90
2018-07-03T06:16:25.348Z,99.90
2018-07-03T06:18:52.952Z,99.90
2018-07-03T06:21:20.682Z,99.90
2018-07-03T06:23:48.286Z,99.90
2018-07-03T06:26:15.884Z,99.90
2018-07-03T06:28:43.543Z,99.90
2018-07-03T06:31:11.133Z,99.90
2018-07-03T06:33:38.753Z,99.90
2018-07-03T06:36:06.708Z,99.90
2018-07-03T06:38:34.339Z,99.90
2018-07-03T06:41:01.942Z,99.90
2018-07-03T06:43:29.569Z,99.90
2018-07-03T06:45:57.176Z,99.90
2018-07-03T06:48:24.797Z,99.90
2018-07-03T06:50:52.396Z,99.90
2018-07-03T06:53:20.020Z,99.90
2018-07-03T06:55:47.624Z,99.90
2018-07-03T06:58:15.248Z,99.90
2018-07-03T07:00:42.843Z,99.90
2018-07-03T07:05:37.852Z,99.90
2018-07-03T07:08:05.500Z,99.90
2018-07-03T07:10:33.100Z,99.90
2018-07-03T07:13:00.720Z,99.90
2018-07-03T07:15:28.325Z,99.90
2018-07-03T07:17:55.944Z,99.90
2018-07-03T07:20:23.554Z,99.90
2018-07-03T07:22:51.185Z,99.90
2018-07-03T07:25:18.816Z,99.90
2018-07-03T07:27:46.440Z,99.90
2018-07-03T07:30:14.052Z,99.90
2018-07-03T07:32:41.680Z,99.20
2018-07-03T07:35:09.285Z,99.30
2018-07-03T07:37:36.933Z,99.00
2018-07-03T07:40:04.820Z,97.00
2018-07-03T07:42:32.532Z,96.90
2018-07-03T07:45:00.134Z,95.30
2018-07-03T07:47:27.753Z,96.90
2018-07-03T07:49:55.361Z,95.40
2018-07-03T07:52:23.030Z,99.60
2018-07-03T07:54:50.642Z,96.10
2018-07-03T07:57:18.305Z,95.00
2018-07-03T07:59:45.907Z,95.50
2018-07-03T08:04:40.892Z,92.60
2018-07-03T08:07:08.555Z,94.50
2018-07-03T08:09:36.243Z,93.70
2018-07-03T08:12:03.845Z,95.50
2018-07-03T08:14:31.459Z,92.30
2018-07-03T08:16:59.052Z,93.90
2018-07-03T08:19:26.668Z,90.60
2018-07-03T08:21:54.918Z,90.20
2018-07-03T08:24:22.555Z,90.40
2018-07-03T08:26:50.153Z,89.70
2018-07-03T08:29:17.778Z,90.30
2018-07-03T08:31:45.391Z,90.70
2018-07-03T08:34:13.013Z,96.20
2018-07-03T08:36:40.633Z,90.50
2018-07-03T08:39:09.461Z,87.90
2018-07-03T08:41:37.065Z,85.90
2018-07-03T08:44:04.694Z,84.10
2018-07-03T08:46:32.292Z,85.00
2018-07-03T08:48:59.912Z,87.40
2018-07-03T08:51:27.517Z,85.90
2018-07-03T08:53:55.145Z,81.50
2018-07-03T08:56:22.741Z,80.20
2018-07-03T08:58:50.368Z,82.80
2018-07-03T09:01:17.985Z,89.40
2018-07-03T09:03:45.679Z,80.50
2018-07-03T09:06:13.252Z,94.70
2018-07-03T09:08:40.871Z,87.80
2018-07-03T09:11:08.708Z,85.00
2018-07-03T09:13:36.332Z,85.40
2018-07-03T09:16:03.940Z,85.80
2018-07-03T09:18:31.560Z,81.50
2018-07-03T09:20:59.155Z,79.60
2018-07-03T09:23:26.772Z,82.80
2018-07-03T09:25:54.374Z,78.80
2018-07-03T09:28:21.992Z,84.70
2018-07-03T09:30:49.592Z,80.60
2018-07-03T09:33:17.243Z,77.50
2018-07-03T09:35:44.840Z,74.00
2018-07-03T09:38:12.497Z,74.80
2018-07-03T09:40:40.388Z,76.50
2018-07-03T09:43:08.040Z,76.70
2018-07-03T09:45:35.680Z,76.70
2018-07-03T09:48:03.760Z,78.40
2018-07-03T09:50:31.372Z,86.10
2018-07-03T09:52:59.008Z,91.50
2018-07-03T09:55:26.692Z,93.70
2018-07-03T09:57:54.624Z,84.30
2018-07-03T10:00:27.848Z,81.50
2018-07-03T10:02:55.908Z,91.10
2018-07-03T10:05:23.619Z,93.70
2018-07-03T10:07:51.229Z,93.90
2018-07-03T10:10:18.862Z,95.20
2018-07-03T10:12:46.459Z,96.10
2018-07-03T10:15:14.072Z,96.90
2018-07-03T10:17:41.674Z,88.20
2018-07-03T10:20:09.296Z,84.70
2018-07-03T10:22:36.896Z,84.30
2018-07-03T10:25:04.568Z,82.40
2018-07-03T10:27:32.169Z,81.40
2018-07-03T10:29:59.792Z,80.70
2018-07-03T10:32:27.404Z,84.80
2018-07-03T10:34:55.052Z,92.50
2018-07-03T10:37:22.648Z,85.60
2018-07-03T10:39:50.296Z,92.70
2018-07-03T10:42:17.894Z,77.80
2018-07-03T10:44:45.529Z,77.60
2018-07-03T10:47:13.140Z,76.30
2018-07-03T10:49:40.761Z,75.90
2018-07-03T10:52:08.364Z,74.20
2018-07-03T10:54:35.984Z,88.20
2018-07-03T10:57:03.620Z,79.40
2018-07-03T10:59:31.307Z,87.00
2018-07-03T11:01:58.943Z,78.10
2018-07-03T11:04:26.580Z,75.70
2018-07-03T11:06:54.177Z,75.10
2018-07-03T11:09:21.797Z,78.20
2018-07-03T11:11:49.395Z,75.70
2018-07-03T11:14:17.021Z,73.30
2018-07-03T11:16:44.632Z,78.10
2018-07-03T11:19:12.274Z,77.30
2018-07-03T11:21:39.876Z,82.90
2018-07-03T11:24:07.540Z,78.00
2018-07-03T11:26:35.213Z,90.40
2018-07-03T11:29:02.849Z,93.00
2018-07-03T11:31:30.440Z,86.40
2018-07-03T11:33:58.065Z,94.00
2018-07-03T11:36:25.677Z,87.40
2018-07-03T11:38:53.300Z,83.40
2018-07-03T11:41:20.905Z,90.00
2018-07-03T11:43:48.524Z,82.90
2018-07-03T11:46:16.148Z,86.70
2018-07-03T11:48:43.753Z,92.10
2018-07-03T11:51:11.381Z,85.00
2018-07-03T11:53:39.003Z,87.20
2018-07-03T11:56:06.675Z,91.30
2018-07-03T11:58:34.284Z,83.10
2018-07-03T12:01:01.941Z,75.70
2018-07-03T12:03:29.560Z,81.70
2018-07-03T12:05:57.177Z,72.60
2018-07-03T12:08:24.786Z,74.90
2018-07-03T12:10:52.407Z,78.30
2018-07-03T12:13:20.008Z,74.30
2018-07-03T12:15:47.628Z,73.20
2018-07-03T12:18:20.831Z,68.10
2018-07-03T12:20:48.453Z,69.20
2018-07-03T12:23:16.056Z,67.50
2018-07-03T12:25:43.678Z,81.50
2018-07-03T12:28:11.283Z,67.10
2018-07-03T12:30:38.940Z,67.60
2018-07-03T12:33:06.545Z,69.60
2018-07-03T12:35:34.173Z,70.00
2018-07-03T12:38:01.775Z,68.80
2018-07-03T12:40:29.400Z,75.20
2018-07-03T12:42:57.009Z,80.50
2018-07-03T12:45:24.704Z,71.70
2018-07-03T12:47:52.300Z,73.60
2018-07-03T12:50:19.920Z,69.30
2018-07-03T12:55:14.923Z,69.00
2018-07-03T12:57:42.524Z,65.70
2018-07-03T13:00:10.144Z,66.00
2018-07-03T13:02:37.747Z,65.00
2018-07-03T13:05:05.486Z,63.80
2018-07-03T13:07:33.048Z,64.10
2018-07-03T13:10:00.668Z,65.60
2018-07-03T13:12:28.272Z,64.50
2018-07-03T13:14:56.088Z,63.50
2018-07-03T13:17:23.692Z,64.80
2018-07-03T13:19:51.309Z,65.80
2018-07-03T13:22:18.908Z,60.10
2018-07-03T13:24:46.547Z,60.30
2018-07-03T13:27:14.148Z,59.70
2018-07-03T13:29:41.800Z,61.50
2018-07-03T13:32:09.404Z,69.10
2018-07-03T13:34:37.008Z,61.50
2018-07-03T13:37:04.644Z,62.10
2018-07-03T13:39:32.275Z,61.30
2018-07-03T13:41:59.900Z,61.60
2018-07-03T13:44:27.524Z,58.60
2018-07-03T13:46:55.143Z,61.20
2018-07-03T13:49:22.753Z,62.30
2018-07-03T13:51:50.389Z,62.10
2018-07-03T13:54:17.983Z,59.50
2018-07-03T13:56:45.600Z,60.60
2018-07-03T13:59:13.208Z,60.20
2018-07-03T14:01:40.836Z,64.50
2018-07-03T14:04:08.467Z,62.80
2018-07-03T14:06:36.088Z,63.40
2018-07-03T14:09:05.508Z,64.70
2018-07-03T14:11:33.123Z,62.50
2018-07-03T14:14:00.729Z,60.70
2018-07-03T14:16:28.344Z,61.60
2018-07-03T14:18:55.952Z,59.80
2018-07-03T14:21:23.580Z,58.90
2018-07-03T14:23:51.200Z,59.60
2018-07-03T14:26:18.844Z,59.90
2018-07-03T14:28:46.447Z,58.30
2018-07-03T14:31:14.069Z,57.80
2018-07-03T14:33:41.668Z,69.10
2018-07-03T14:36:09.913Z,60.00
2018-07-03T14:38:37.519Z,59.10
2018-07-03T14:41:05.155Z,58.80
2018-07-03T14:46:00.168Z,56.50
2018-07-03T14:48:27.772Z,58.10
2018-07-03T14:50:55.393Z,60.00
2018-07-03T14:53:22.991Z,55.00
2018-07-03T14:55:50.725Z,56.00
2018-07-03T14:58:18.320Z,56.40
2018-07-03T15:00:45.936Z,54.90
2018-07-03T15:03:13.536Z,64.40
2018-07-03T15:05:41.174Z,57.00
2018-07-03T15:08:08.781Z,53.90
2018-07-03T15:10:36.413Z,52.50
2018-07-03T15:13:04.048Z,51.20
2018-07-03T15:15:31.672Z,52.30
2018-07-03T15:17:59.272Z,51.30
2018-07-03T15:20:26.880Z,52.00
2018-07-03T15:22:54.535Z,50.50
2018-07-03T15:25:22.136Z,51.00
2018-07-03T15:27:49.752Z,50.80
2018-07-03T15:30:19.095Z,50.80
2018-07-03T15:32:46.798Z,50.40
2018-07-03T15:35:14.380Z,56.60
2018-07-03T15:37:42.000Z,50.00
2018-07-03T15:40:09.628Z,53.00
2018-07-03T15:42:37.248Z,57.80
2018-07-03T15:45:06.889Z,50.70
2018-07-03T15:47:34.543Z,47.70
2018-07-03T15:50:02.160Z,47.30
2018-07-03T15:52:29.848Z,53.10
2018-07-03T15:54:57.496Z,54.60
2018-07-03T15:57:25.121Z,47.00
2018-07-03T15:59:52.732Z,47.10
2018-07-03T16:02:20.392Z,51.50
2018-07-03T16:05:03.261Z,48.50
2018-07-03T16:07:36.543Z,44.70
2018-07-03T16:10:04.405Z,45.50
2018-07-03T16:12:32.020Z,45.00
2018-07-03T16:14:59.681Z,45.90
2018-07-03T16:17:27.295Z,44.60
2018-07-03T16:20:00.467Z,45.00
2018-07-03T16:22:28.088Z,47.60
2018-07-03T16:24:55.757Z,44.70
2018-07-03T16:27:23.381Z,44.00
2018-07-03T16:29:51.001Z,44.60
2018-07-03T16:32:18.616Z,43.80
2018-07-03T16:34:46.258Z,46.60
2018-07-03T16:37:14.192Z,43.20
2018-07-03T16:39:41.833Z,42.60
2018-07-03T16:42:09.460Z,44.00
2018-07-03T16:44:37.059Z,43.80
2018-07-03T16:47:04.680Z,44.00
2018-07-03T16:49:32.308Z,43.40
2018-07-03T16:51:59.926Z,43.70
2018-07-03T16:54:27.533Z,43.50
2018-07-03T16:56:55.960Z,42.20
2018-07-03T16:59:23.556Z,43.30
2018-07-03T17:01:51.176Z,43.10
2018-07-03T17:04:18.796Z,41.50
2018-07-03T17:06:46.537Z,43.90
2018-07-03T17:09:14.148Z,47.10
2018-07-03T17:11:41.776Z,48.70
2018-07-03T17:14:10.616Z,49.70
2018-07-03T17:16:38.515Z,53.50
2018-07-03T17:19:11.510Z,49.30
2018-07-03T17:21:39.128Z,44.00
2018-07-03T17:24:06.745Z,43.70
2018-07-03T17:26:34.381Z,43.30
2018-07-03T17:29:02.056Z,45.40
2018-07-03T17:31:29.653Z,45.00
2018-07-03T17:33:57.292Z,48.40
2018-07-03T17:36:24.937Z,53.60
2018-07-03T17:38:52.563Z,49.60
2018-07-03T17:41:26.006Z,48.80
2018-07-03T17:43:59.387Z,47.20
2018-07-03T17:46:26.985Z,49.10
2018-07-03T17:48:54.605Z,49.90
2018-07-03T17:51:22.210Z,47.00
2018-07-03T17:53:49.839Z,46.90
2018-07-03T17:56:17.440Z,46.80
2018-07-03T17:58:45.068Z,50.10
2018-07-03T18:01:12.688Z,48.30
2018-07-03T18:03:40.334Z,52.10
2018-07-03T18:06:07.944Z,53.50
2018-07-03T18:08:35.568Z,46.80
2018-07-03T18:11:03.172Z,52.20
2018-07-03T18:13:30.795Z,52.30
2018-07-03T18:15:58.391Z,52.90
2018-07-03T18:18:26.020Z,52.40
2018-07-03T18:20:53.628Z,53.90
2018-07-03T18:23:21.502Z,55.30
2018-07-03T18:25:48.884Z,56.30
2018-07-03T18:28:16.507Z,57.70
2018-07-03T18:30:44.113Z,59.70
2018-07-03T18:33:11.729Z,60.90
2018-07-03T18:35:39.324Z,63.60
2018-07-03T18:38:06.945Z,65.20
2018-07-03T18:40:34.548Z,66.60
2018-07-03T18:43:02.167Z,66.60
2018-07-03T18:45:29.768Z,67.40
2018-07-03T18:47:57.396Z,69.90
2018-07-03T18:50:24.995Z,72.30
2018-07-03T18:52:52.732Z,74.70
2018-07-03T18:55:20.357Z,77.70
2018-07-03T18:57:47.985Z,79.90
2018-07-03T19:00:15.628Z,81.60
2018-07-03T19:02:43.252Z,83.70
2018-07-03T19:05:10.881Z,85.60
2018-07-03T19:07:38.505Z,88.20
2018-07-03T19:10:06.114Z,90.10
2018-07-03T19:12:33.847Z,91.20
2018-07-03T19:15:01.483Z,92.50
2018-07-03T19:17:29.112Z,93.40
2018-07-03T19:19:56.725Z,94.50
2018-07-03T19:22:24.417Z,95.30
2018-07-03T19:24:52.020Z,95.80
2018-07-03T19:27:19.668Z,96.40
2018-07-03T19:29:47.293Z,97.30
2018-07-03T19:32:14.900Z,97.90
2018-07-03T19:34:42.604Z,98.60
2018-07-03T19:37:10.208Z,99.40
2018-07-03T19:39:37.881Z,99.90
2018-07-03T19:42:05.541Z,99.90
2018-07-03T19:44:33.208Z,99.90
2018-07-03T19:47:00.855Z,99.90
2018-07-03T19:49:28.484Z,99.90
2018-07-03T19:51:56.194Z,99.90
2018-07-03T19:54:23.816Z,99.90
2018-07-03T19:56:51.436Z,99.90
2018-07-03T19:59:19.081Z,99.90
2018-07-03T20:01:46.687Z,99.90
2018-07-03T20:04:14.349Z,99.90
2018-07-03T20:06:41.956Z,99.90
2018-07-03T20:09:10.774Z,99.90
2018-07-03T20:11:38.372Z,99.90
2018-07-03T20:14:06.507Z,99.90
2018-07-03T20:16:34.308Z,99.90
2018-07-03T20:19:01.973Z,99.90
2018-07-03T20:21:29.564Z,99.90
2018-07-03T20:23:57.179Z,99.90
2018-07-03T20:26:24.780Z,99.90
2018-07-03T20:28:52.403Z,99.90
2018-07-03T20:31:20.014Z,99.90
2018-07-03T20:33:47.640Z,99.90
2018-07-03T20:36:15.243Z,99.90
2018-07-03T20:38:42.900Z,99.90
2018-07-03T20:41:10.755Z,99.90
2018-07-03T20:43:39.577Z,99.90
2018-07-03T20:46:07.624Z,99.90
2018-07-03T20:48:35.249Z,99.90
2018-07-03T20:51:02.855Z,99.90
2018-07-03T20:53:30.479Z,99.90
2018-07-03T20:55:58.097Z,99.90
2018-07-03T20:58:25.750Z,99.90
2018-07-03T21:00:53.688Z,99.90
2018-07-03T21:03:21.304Z,99.90
2018-07-03T21:05:49.378Z,99.90
2018-07-03T21:08:16.904Z,99.90
2018-07-03T21:10:44.508Z,99.90
2018-07-03T21:13:12.112Z,99.90
2018-07-03T21:15:39.740Z,99.90
2018-07-03T21:18:07.353Z,99.90
2018-07-03T21:20:34.976Z,99.90
2018-07-03T21:23:02.582Z,99.90
2018-07-03T21:25:30.201Z,99.90
2018-07-03T21:27:57.800Z,99.90
2018-07-03T21:30:25.424Z,99.90
2018-07-03T21:32:53.024Z,99.90
2018-07-03T21:35:20.644Z,99.90
2018-07-03T21:37:48.247Z,99.90
2018-07-03T21:40:15.870Z,99.90
2018-07-03T21:42:43.472Z,99.90
2018-07-03T21:45:11.131Z,99.90
2018-07-03T21:47:38.754Z,99.90
2018-07-03T21:50:06.381Z,99.90
2018-07-03T21:52:33.979Z,99.90
2018-07-03T21:55:01.605Z,99.90
2018-07-03T21:57:29.213Z,99.90
2018-07-03T21:59:56.831Z,99.90
2018-07-03T22:02:24.449Z,99.90
2018-07-03T22:04:52.099Z,99.90
2018-07-03T22:07:19.780Z,99.90
2018-07-03T22:09:47.405Z,99.90
2018-07-03T22:12:15.006Z,99.90
2018-07-03T22:14:42.919Z,99.90
2018-07-03T22:17:11.493Z,99.90
2018-07-03T22:19:39.400Z,99.90
2018-07-03T22:22:07.018Z,99.90
2018-07-03T22:24:35.056Z,99.90
2018-07-03T22:27:03.021Z,99.90
2018-07-03T22:29:30.673Z,99.90
2018-07-03T22:31:58.279Z,99.90
2018-07-03T22:34:25.899Z,99.90
2018-07-03T22:36:53.608Z,99.90
2018-07-03T22:39:21.231Z,99.90
2018-07-03T22:41:48.836Z,99.90
2018-07-03T22:44:16.460Z,99.90
2018-07-03T22:46:44.065Z,99.90
2018-07-03T22:49:11.684Z,99.90
2018-07-03T22:51:39.308Z,99.90
2018-07-03T22:54:07.024Z,99.90
2018-07-03T22:56:34.639Z,99.90
2018-07-03T22:59:02.475Z,99.90
2018-07-03T23:01:30.381Z,99.90
2018-07-03T23:03:58.020Z,99.90
2018-07-03T23:06:25.843Z,99.90
2018-07-03T23:08:54.096Z,99.90
2018-07-03T23:11:21.712Z,99.90
2018-07-03T23:13:49.317Z,99.90
2018-07-03T23:16:16.939Z,99.90
2018-07-03T23:18:44.900Z,99.90
2018-07-03T23:21:12.523Z,99.90
2018-07-03T23:23:40.151Z,99.90
2018-07-03T23:26:07.772Z,99.90
2018-07-03T23:28:35.378Z,99.90
2018-07-03T23:31:03.140Z,99.90
2018-07-03T23:33:30.744Z,99.90
2018-07-03T23:35:58.360Z,99.90
2018-07-03T23:38:26.088Z,99.90
2018-07-03T23:40:53.785Z,99.90
2018-07-03T23:43:21.395Z,99.90
2018-07-03T23:46:00.152Z,99.90
2018-07-03T23:48:33.588Z,99.90
2018-07-03T23:51:06.971Z,99.90
2018-07-03T23:53:40.236Z,99.90
2018-07-03T23:56:13.688Z,99.90
2018-07-03T23:58:47.088Z,99.90
